createdAt,value
2022-08-27T10:03:06.991Z,28.32
2022-08-27T10:08:38.892Z,28.14
2022-08-27T10:19:49.128Z,30.41
2022-08-27T10:28:16.471Z,31.33
2022-08-27T10:33:53.986Z,31.99
2022-08-27T10:39:49.054Z,31.83
2022-08-27T10:45:31.103Z,31.85
2022-08-27T10:51:16.123Z,31.74
2022-08-27T10:56:44.311Z,31.76
2022-08-27T11:02:26.623Z,31.79
2022-08-27T11:08:12.317Z,31.84
2022-08-27T11:13:47.177Z,31.50
2022-08-27T11:19:31.757Z,31.32
2022-08-27T11:25:07.331Z,31.30
2022-08-27T11:30:56.891Z,31.36
2022-08-27T11:36:56.060Z,31.58
2022-08-27T11:42:32.749Z,31.35
2022-08-27T11:48:00.909Z,31.47
2022-08-27T11:53:54.586Z,31.41
2022-08-27T11:59:28.033Z,31.32
2022-08-27T12:04:49.685Z,31.23
2022-08-27T12:10:48.820Z,31.14
2022-08-27T12:16:25.867Z,31.14
2022-08-27T12:22:23.578Z,31.39
2022-08-27T12:27:57.597Z,31.24
2022-08-27T12:33:33.277Z,31.18
2022-08-27T12:38:58.466Z,31.32
2022-08-27T12:44:28.387Z,31.50
2022-08-27T12:49:57.187Z,31.69
2022-08-27T12:55:47.160Z,31.94
2022-08-27T13:01:11.568Z,31.84
2022-08-27T13:06:36.091Z,31.78
2022-08-27T13:11:59.685Z,31.71
2022-08-27T13:17:23.601Z,31.62
2022-08-27T13:22:45.719Z,31.50
2022-08-27T13:28:13.705Z,31.55
2022-08-27T13:33:37.614Z,31.42
2022-08-27T13:39:01.039Z,31.28
2022-08-27T13:44:34.407Z,31.19
2022-08-27T13:50:12.490Z,31.17
2022-08-27T13:55:34.075Z,31.18
2022-08-27T14:01:07.463Z,31.21
2022-08-27T14:06:39.123Z,31.25
2022-08-27T14:12:03.541Z,31.21
2022-08-27T14:17:39.814Z,31.18
2022-08-27T14:23:01.870Z,31.07
2022-08-27T14:28:23.801Z,30.89
2022-08-27T14:33:46.777Z,30.73
2022-08-27T14:39:09.480Z,30.63
2022-08-27T14:44:32.171Z,30.49
2022-08-27T14:49:53.708Z,30.39
2022-08-27T14:55:15.274Z,30.25
2022-08-27T15:00:37.951Z,30.14
2022-08-27T15:05:59.528Z,30.02
2022-08-27T15:11:28.265Z,29.94
2022-08-27T15:16:51.755Z,29.83
2022-08-27T15:22:19.475Z,29.72
2022-08-27T15:27:41.799Z,29.64
2022-08-27T15:33:06.394Z,29.50
2022-08-27T15:38:28.061Z,29.40
2022-08-27T15:43:49.933Z,29.31
2022-08-27T15:49:14.459Z,29.19
2022-08-27T15:54:37.504Z,29.10
2022-08-27T15:59:59.188Z,28.97
2022-08-27T16:05:22.447Z,28.87
2022-08-27T16:10:44.115Z,28.74
2022-08-27T16:16:07.384Z,28.62
2022-08-27T16:21:30.259Z,28.53
2022-08-27T16:26:52.121Z,28.47
2022-08-27T16:32:18.794Z,28.43
2022-08-27T16:37:40.822Z,28.36
2022-08-27T16:43:02.434Z,28.32
2022-08-27T16:48:43.470Z,28.27
2022-08-27T16:54:08.009Z,28.27
2022-08-27T16:59:29.579Z,28.29
2022-08-27T17:04:58.420Z,28.22
2022-08-27T17:10:40.497Z,28.03
2022-08-27T17:16:03.752Z,27.95
2022-08-27T17:21:29.726Z,27.92
2022-08-27T17:26:52.266Z,27.83
2022-08-27T17:32:13.795Z,27.78
2022-08-27T17:37:35.763Z,27.66
2022-08-27T17:42:58.696Z,27.61
2022-08-27T17:48:26.045Z,27.70
2022-08-27T17:53:51.395Z,27.65
2022-08-27T17:59:12.808Z,27.57
2022-08-27T18:04:34.322Z,27.52
2022-08-27T18:09:55.985Z,27.57
2022-08-27T18:15:22.678Z,27.61
2022-08-27T18:21:55.882Z,27.65
2022-08-27T18:27:33.010Z,27.67
2022-08-27T18:32:54.993Z,27.71
2022-08-27T18:38:18.524Z,27.78
2022-08-27T18:43:41.715Z,27.81
2022-08-27T18:49:03.774Z,27.73
2022-08-27T18:54:27.532Z,27.54
2022-08-27T18:59:49.172Z,27.48
2022-08-27T19:05:12.669Z,27.34
2022-08-27T19:10:34.590Z,27.21
2022-08-27T19:16:01.283Z,27.11
2022-08-27T19:21:22.856Z,26.98
2022-08-27T19:26:45.061Z,26.91
2022-08-27T19:32:06.668Z,26.84
2022-08-27T19:37:30.984Z,26.80
2022-08-27T19:42:52.573Z,26.69
2022-08-27T19:48:14.578Z,26.56
2022-08-27T19:53:36.926Z,26.47
2022-08-27T19:59:08.695Z,26.38
2022-08-27T20:04:55.985Z,26.20
2022-08-27T20:10:36.170Z,26.08
2022-08-27T20:15:58.343Z,25.94
2022-08-27T20:21:20.036Z,25.86
2022-08-27T20:26:41.631Z,25.80
2022-08-27T20:32:04.504Z,25.81
2022-08-27T20:37:26.050Z,25.85
2022-08-27T20:42:47.524Z,25.83
2022-08-27T20:48:10.392Z,25.77
2022-08-27T20:53:31.999Z,25.70
2022-08-27T20:59:12.088Z,25.61
2022-08-27T21:04:37.891Z,25.45
2022-08-27T21:09:59.603Z,25.39
2022-08-27T21:15:21.230Z,25.32
2022-08-27T21:20:42.811Z,25.26
2022-08-27T21:26:11.596Z,25.23
2022-08-27T21:31:33.087Z,25.26
2022-08-27T21:36:54.652Z,25.24
2022-08-27T21:42:16.432Z,25.28
2022-08-27T21:47:38.380Z,25.27
2022-08-27T21:53:01.580Z,25.15
2022-08-27T21:58:26.600Z,25.03
2022-08-27T22:03:51.864Z,24.95
2022-08-27T22:09:13.483Z,24.98
2022-08-27T22:14:37.379Z,25.01
2022-08-27T22:19:59.356Z,25.08
2022-08-27T22:25:21.248Z,25.11
2022-08-27T22:30:45.019Z,25.22
2022-08-27T22:36:06.960Z,25.24
2022-08-27T22:41:28.397Z,25.11
2022-08-27T22:46:53.971Z,24.94
2022-08-27T22:52:15.614Z,24.85
2022-08-27T22:57:36.979Z,24.77
2022-08-27T23:02:59.318Z,24.69
2022-08-27T23:08:22.593Z,24.65
2022-08-27T23:13:44.550Z,24.61
2022-08-27T23:19:06.163Z,24.52
2022-08-27T23:24:27.773Z,24.47
2022-08-27T23:29:49.190Z,24.63
2022-08-27T23:35:13.347Z,24.64
2022-08-27T23:40:34.754Z,24.77
2022-08-27T23:45:56.905Z,24.96
2022-08-27T23:51:18.361Z,25.05
2022-08-27T23:56:39.989Z,24.91
